Time;durP1;ratioP1;P1;durP2;ratioP2;P2;SDS_P1;SDS_P2;PMS_P1;PMS_P2;Temp;Humidity;BMP_temperature;BMP_pressure;BME280_temperature;BME280_humidity;BME280_pressure;Samples;Min_cycle;Max_cycle;Signal;HPM_P1;HPM_P2
2022/09/05 00:00:01;;;;;;;1.15;0.80;;;19.70;94.00;;;;;;5034133;28;20084;-71
2022/09/05 00:02:35;;;;;;;0.93;0.75;;;19.70;94.00;;;;;;5050662;28;20120;-72
2022/09/05 00:05:35;;;;;;;0.98;0.70;;;19.70;94.10;;;;;;5050637;28;20044;-71
2022/09/05 00:08:18;;;;;;;0.65;0.60;;;19.70;94.40;;;;;;5050714;28;20048;-71
2022/09/05 00:10:59;;;;;;;0.93;0.65;;;19.60;94.40;;;;;;5034024;28;20048;-80
2022/09/05 00:13:36;;;;;;;0.65;0.52;;;19.60;94.20;;;;;;5052177;28;20041;-79
2022/09/05 00:16:49;;;;;;;0.63;0.60;;;19.50;94.40;;;;;;5050596;28;20041;-80
2022/09/05 00:19:42;;;;;;;1.15;0.80;;;19.50;94.20;;;;;;5009451;28;20636;-80
2022/09/05 00:22:28;;;;;;;0.73;0.50;;;19.50;94.40;;;;;;4993230;28;20078;-80
2022/09/05 00:25:39;;;;;;;0.93;0.75;;;19.50;94.40;;;;;;5037405;28;20056;-80
2022/09/05 00:28:36;;;;;;;0.57;0.57;;;19.40;94.40;;;;;;5047949;28;20136;-80
2022/09/05 00:31:23;;;;;;;1.15;0.77;;;19.40;94.70;;;;;;5050087;28;20049;-80
2022/09/05 00:34:37;;;;;;;1.52;0.80;;;19.40;94.60;;;;;;5050477;28;20128;-81
2022/09/05 00:37:03;;;;;;;1.20;0.80;;;19.30;94.50;;;;;;5049834;28;20057;-81
2022/09/05 00:39:31;;;;;;;;;;;19.30;94.60;;;;;;5050345;28;20508;-72
2022/09/05 00:42:07;;;;;;;0.63;0.60;;;19.30;94.80;;;;;;5049904;28;19947;-72
2022/09/05 00:44:46;;;;;;;0.50;0.50;;;19.30;94.70;;;;;;5049872;28;20037;-72
2022/09/05 00:47:22;;;;;;;0.63;0.63;;;19.20;94.90;;;;;;5050169;28;20087;-81
2022/09/05 00:50:01;;;;;;;1.15;0.65;;;19.20;95.00;;;;;;5050097;28;20344;-81
2022/09/05 00:52:35;;;;;;;0.85;0.80;;;19.10;95.00;;;;;;5049695;28;20055;-81
2022/09/05 00:55:22;;;;;;;1.17;0.80;;;19.10;95.10;;;;;;5050251;28;20057;-81
2022/09/05 00:58:03;;;;;;;1.40;0.90;;;19.10;95.10;;;;;;5050262;28;20060;-81
2022/09/05 01:00:47;;;;;;;0.70;0.60;;;19.00;95.10;;;;;;5049971;28;20390;-81
2022/09/05 01:03:32;;;;;;;1.02;0.90;;;19.00;95.10;;;;;;5049538;28;20049;-81
2022/09/05 01:06:22;;;;;;;1.08;0.85;;;18.90;95.30;;;;;;5049850;28;20095;-81
2022/09/05 01:09:29;;;;;;;1.25;0.70;;;18.90;95.40;;;;;;5049541;28;20052;-72
2022/09/05 01:12:18;;;;;;;1.52;0.90;;;18.90;95.40;;;;;;5050852;28;20055;-72
2022/09/05 01:15:14;;;;;;;0.60;0.60;;;18.90;95.30;;;;;;5050955;28;20052;-72
2022/09/05 01:17:55;;;;;;;0.55;0.50;;;18.80;95.50;;;;;;5049426;28;20392;-72
2022/09/05 01:20:29;;;;;;;1.00;0.70;;;18.80;95.40;;;;;;5049942;28;20060;-81
2022/09/05 01:23:14;;;;;;;1.00;0.80;;;18.80;95.50;;;;;;5049939;28;20488;-80
2022/09/05 01:26:15;;;;;;;1.10;0.70;;;18.70;95.50;;;;;;5049580;28;20467;-80
2022/09/05 01:28:40;;;;;;;0.63;0.60;;;18.70;95.40;;;;;;5008761;28;20034;-80
2022/09/05 01:31:11;;;;;;;;;;;18.60;95.60;;;;;;5037622;28;20057;-80
2022/09/05 01:33:56;;;;;;;0.82;0.70;;;18.60;95.90;;;;;;5033032;28;19986;-80
2022/09/05 01:36:48;;;;;;;0.60;0.60;;;18.60;95.90;;;;;;5049533;28;20065;-81
2022/09/05 01:39:39;;;;;;;0.70;0.60;;;18.60;96.10;;;;;;5049638;28;20061;-72
2022/09/05 01:42:40;;;;;;;1.10;0.68;;;18.50;95.80;;;;;;5049489;28;20053;-72
2022/09/05 01:45:29;;;;;;;1.70;1.00;;;18.50;96.00;;;;;;5049082;28;20041;-72
2022/09/05 01:48:11;;;;;;;1.00;0.80;;;18.40;95.90;;;;;;5048937;28;20052;-72
2022/09/05 01:50:52;;;;;;;1.13;0.70;;;18.40;96.20;;;;;;5049076;28;20052;-72
2022/09/05 01:53:24;;;;;;;1.45;0.90;;;18.40;96.30;;;;;;5049136;28;20037;-72
2022/09/05 01:56:28;;;;;;;1.23;0.80;;;18.40;96.20;;;;;;5049142;28;20049;-72
2022/09/05 01:59:23;;;;;;;1.10;0.88;;;18.30;96.20;;;;;;5049100;28;20501;-81
2022/09/05 02:02:24;;;;;;;1.02;0.70;;;18.30;96.30;;;;;;5032775;28;20045;-80
2022/09/05 02:05:01;;;;;;;0.80;0.70;;;18.30;96.20;;;;;;5051131;28;20037;-80
2022/09/05 02:07:34;;;;;;;1.40;0.85;;;18.30;96.20;;;;;;5053230;28;20045;-81
2022/09/05 02:10:44;;;;;;;1.33;1.00;;;18.30;96.10;;;;;;5052808;28;20052;-81
2022/09/05 02:13:33;;;;;;;2.00;1.25;;;18.30;96.60;;;;;;5044390;28;20084;-81
2022/09/05 02:16:21;;;;;;;2.33;1.30;;;18.20;96.50;;;;;;5032830;28;20053;-81
2022/09/05 02:19:16;;;;;;;2.35;1.40;;;18.20;96.70;;;;;;5036035;28;20072;-81
2022/09/05 02:22:06;;;;;;;1.98;1.33;;;18.20;96.50;;;;;;5052599;28;20052;-81
2022/09/05 02:24:34;;;;;;;1.10;1.00;;;18.10;96.50;;;;;;5052761;28;20044;-81
2022/09/05 02:27:18;;;;;;;1.63;1.05;;;18.10;96.60;;;;;;5052675;28;20111;-80
2022/09/05 02:30:10;;;;;;;1.88;1.10;;;18.10;96.70;;;;;;5052564;28;20053;-80
2022/09/05 02:32:35;;;;;;;1.88;1.30;;;18.10;96.80;;;;;;5036013;28;20049;-80
2022/09/05 02:35:17;;;;;;;1.30;1.20;;;18.00;97.00;;;;;;5052386;28;20077;-80
2022/09/05 02:38:14;;;;;;;2.47;1.45;;;18.00;97.00;;;;;;5052142;28;20133;-80
2022/09/05 02:41:22;;;;;;;1.67;1.10;;;18.00;97.50;;;;;;5050151;28;20088;-81
2022/09/05 02:44:07;;;;;;;2.03;1.27;;;17.90;97.10;;;;;;5045999;28;20517;-81
2022/09/05 02:46:54;;;;;;;1.63;1.10;;;17.90;97.30;;;;;;5035565;28;20044;-81
2022/09/05 02:49:32;;;;;;;1.98;1.27;;;17.80;97.40;;;;;;5053391;28;20496;-81
2022/09/05 02:52:10;;;;;;;1.42;1.00;;;17.80;97.60;;;;;;5052010;28;20526;-81
2022/09/05 02:54:42;;;;;;;1.40;1.10;;;17.80;97.80;;;;;;5035642;28;20076;-81
2022/09/05 02:57:17;;;;;;;1.42;1.10;;;17.70;97.90;;;;;;5035438;28;20119;-81
2022/09/05 03:00:34;;;;;;;1.70;1.10;;;17.70;98.10;;;;;;5051863;28;20076;-81
2022/09/05 03:03:11;;;;;;;1.10;1.00;;;17.70;98.00;;;;;;5029737;28;20061;-82
2022/09/05 03:05:45;;;;;;;1.20;1.10;;;17.60;98.30;;;;;;5053071;28;20508;-80
2022/09/05 03:08:27;;;;;;;1.70;1.13;;;17.60;98.40;;;;;;5051588;28;20095;-82
2022/09/05 03:11:19;;;;;;;1.27;1.00;;;17.60;98.20;;;;;;5051805;28;20044;-81
2022/09/05 03:14:35;;;;;;;1.15;1.00;;;17.50;98.10;;;;;;5051759;28;20508;-80
2022/09/05 03:17:26;;;;;;;1.73;1.20;;;17.50;98.30;;;;;;5051591;28;20045;-80
2022/09/05 03:20:06;;;;;;;1.65;1.20;;;17.50;98.60;;;;;;5052870;28;20396;-80
2022/09/05 03:22:45;;;;;;;2.10;1.17;;;17.50;98.70;;;;;;5051821;28;20044;-80
2022/09/05 03:25:13;;;;;;;1.10;1.00;;;17.40;98.70;;;;;;5051443;28;20049;-80
2022/09/05 03:27:51;;;;;;;1.20;1.10;;;17.40;98.90;;;;;;5051652;28;20040;-80
2022/09/05 03:30:26;;;;;;;1.20;1.08;;;17.30;98.90;;;;;;5034743;28;20091;-80
2022/09/05 03:32:51;;;;;;;1.60;1.17;;;17.30;98.90;;;;;;5034940;28;20141;-80
2022/09/05 03:36:07;;;;;;;1.13;0.90;;;17.30;99.00;;;;;;5051147;28;20546;-80
2022/09/05 03:38:51;;;;;;;1.55;1.15;;;17.30;99.20;;;;;;5051078;28;20400;-79
2022/09/05 03:41:23;;;;;;;1.42;1.10;;;17.30;99.50;;;;;;5051377;28;20091;-80
2022/09/05 03:44:30;;;;;;;2.13;1.50;;;17.20;99.40;;;;;;5051116;28;20151;-80
2022/09/05 03:47:07;;;;;;;1.27;1.15;;;17.20;99.30;;;;;;5030861;28;20055;-80
2022/09/05 03:49:39;;;;;;;2.55;1.38;;;17.20;99.50;;;;;;5051423;28;20120;-80
2022/09/05 03:52:17;;;;;;;1.80;1.40;;;17.20;99.50;;;;;;5051275;28;20443;-81
2022/09/05 03:55:18;;;;;;;1.80;1.10;;;17.20;99.60;;;;;;5051048;28;20091;-80
2022/09/05 03:57:58;;;;;;;2.33;1.67;;;17.20;99.80;;;;;;4977563;28;20108;-79
2022/09/05 04:00:32;;;;;;;1.35;1.15;;;17.10;99.50;;;;;;5044208;28;20469;-79
2022/09/05 04:03:00;;;;;;;1.60;1.45;;;17.10;99.70;;;;;;5034038;28;20142;-80
2022/09/05 04:05:39;;;;;;;2.28;1.40;;;17.10;99.70;;;;;;5050669;28;20045;-79
2022/09/05 04:08:14;;;;;;;3.10;1.40;;;17.10;99.70;;;;;;5050620;28;20045;-80
2022/09/05 04:10:54;;;;;;;1.70;1.30;;;17.00;99.90;;;;;;5051812;28;20052;-80
2022/09/05 04:13:43;;;;;;;1.65;1.40;;;17.00;99.90;;;;;;5050781;28;20049;-80
2022/09/05 04:16:20;;;;;;;1.67;1.33;;;16.90;99.90;;;;;;5040231;28;20488;-80
2022/09/05 04:19:06;;;;;;;1.40;1.20;;;16.90;99.90;;;;;;5050658;28;20041;-80
2022/09/05 04:21:43;;;;;;;2.60;1.10;;;16.90;99.90;;;;;;5050107;28;20520;-80
2022/09/05 04:24:20;;;;;;;;;;;16.90;99.90;;;;;;5051073;28;20049;-80
2022/09/05 04:27:04;;;;;;;1.93;1.40;;;16.80;99.90;;;;;;5050034;28;20017;-80
2022/09/05 04:29:44;;;;;;;1.95;1.70;;;16.80;99.90;;;;;;5033738;28;20786;-81
2022/09/05 04:32:31;;;;;;;1.88;1.58;;;16.80;99.90;;;;;;5050488;28;20048;-80
2022/09/05 04:35:16;;;;;;;;;;;16.80;99.90;;;;;;5034249;28;20044;-80
2022/09/05 04:38:03;;;;;;;2.38;1.80;;;16.70;99.90;;;;;;5050320;28;19929;-80
2022/09/05 04:40:36;;;;;;;2.85;1.50;;;16.70;99.90;;;;;;5050514;28;20417;-80
2022/09/05 04:43:12;;;;;;;1.48;1.30;;;16.70;99.90;;;;;;5050000;28;20045;-80
2022/09/05 04:45:44;;;;;;;1.90;1.40;;;16.70;99.90;;;;;;5049993;28;20508;-80
2022/09/05 04:48:13;;;;;;;2.15;1.38;;;16.70;99.90;;;;;;5050098;28;20044;-80
2022/09/05 04:51:00;;;;;;;1.95;1.60;;;16.60;99.90;;;;;;5050376;28;20453;-80
2022/09/05 04:53:54;;;;;;;1.93;1.50;;;16.60;99.90;;;;;;5050069;28;20159;-79
2022/09/05 04:56:25;;;;;;;2.92;1.95;;;16.60;99.90;;;;;;5050251;28;20290;-81
2022/09/05 04:59:07;;;;;;;3.22;1.90;;;16.60;99.90;;;;;;5050272;28;20436;-80
2022/09/05 05:01:41;;;;;;;1.95;1.30;;;16.60;99.90;;;;;;5049816;28;20048;-80
2022/09/05 05:04:13;;;;;;;2.28;1.73;;;16.60;99.90;;;;;;5050074;28;20060;-80
2022/09/05 05:06:54;;;;;;;1.77;1.40;;;16.60;99.90;;;;;;5033357;28;20385;-80
2022/09/05 05:09:43;;;;;;;2.35;1.58;;;16.60;99.90;;;;;;5033392;28;20041;-81
2022/09/05 05:12:29;;;;;;;1.73;1.40;;;16.60;99.90;;;;;;5049757;28;20056;-80
2022/09/05 05:15:02;;;;;;;1.83;1.30;;;16.60;99.90;;;;;;5032987;28;20045;-80
2022/09/05 05:17:52;;;;;;;1.38;1.25;;;16.60;99.90;;;;;;5049611;28;20045;-80
2022/09/05 05:20:40;;;;;;;1.70;1.50;;;16.60;99.90;;;;;;5050005;28;20120;-80
2022/09/05 05:23:08;;;;;;;3.65;1.30;;;16.60;99.90;;;;;;5049483;28;20087;-80
2022/09/05 05:25:53;;;;;;;1.73;1.30;;;16.60;99.90;;;;;;5049565;28;20608;-81
2022/09/05 05:28:38;;;;;;;1.92;1.52;;;16.60;99.90;;;;;;5049474;28;20220;-80
2022/09/05 05:31:11;;;;;;;;;;;16.60;99.90;;;;;;5051533;28;20041;-80
2022/09/05 05:33:39;;;;;;;1.95;1.35;;;16.60;99.90;;;;;;5032965;28;20434;-80
2022/09/05 05:36:13;;;;;;;1.73;1.30;;;16.60;99.90;;;;;;5032580;28;20140;-81
2022/09/05 05:38:55;;;;;;;1.25;1.15;;;16.60;99.90;;;;;;5032963;28;20408;-80
2022/09/05 05:41:43;;;;;;;2.20;1.27;;;16.60;99.90;;;;;;5036949;28;20115;-80
2022/09/05 05:44:13;;;;;;;;;;;16.70;99.90;;;;;;5054113;28;20048;-80
2022/09/05 05:46:44;;;;;;;2.20;1.08;;;16.70;99.90;;;;;;5053193;28;19920;-80
2022/09/05 05:49:32;;;;;;;1.85;1.17;;;16.70;99.90;;;;;;5053462;28;20114;-80
2022/09/05 05:52:28;;;;;;;1.48;1.20;;;16.70;99.90;;;;;;5053502;28;20057;-80
2022/09/05 05:55:16;;;;;;;1.38;1.20;;;16.80;99.90;;;;;;5053335;28;20161;-79
2022/09/05 05:57:44;;;;;;;1.30;1.20;;;16.80;99.90;;;;;;5053100;28;20041;-81
2022/09/05 06:00:29;;;;;;;1.50;1.30;;;16.90;99.90;;;;;;5036364;28;20488;-81
2022/09/05 06:03:04;;;;;;;1.75;1.30;;;16.90;99.90;;;;;;5052988;28;20056;-81
2022/09/05 06:05:44;;;;;;;1.52;1.17;;;17.00;99.90;;;;;;5053058;28;20383;-81
2022/09/05 06:08:46;;;;;;;1.70;1.13;;;17.00;99.90;;;;;;5052885;28;20106;-81
2022/09/05 06:11:44;;;;;;;1.60;1.20;;;17.10;99.90;;;;;;5052859;28;20469;-72
2022/09/05 06:14:32;;;;;;;;;;;17.10;99.90;;;;;;5053346;28;20075;-80
2022/09/05 06:17:22;;;;;;;2.25;1.77;;;17.20;99.90;;;;;;5052536;28;19923;-72
2022/09/05 06:20:15;;;;;;;2.83;1.90;;;17.20;99.90;;;;;;5053096;28;20435;-81
2022/09/05 06:22:43;;;;;;;2.33;1.70;;;17.30;99.90;;;;;;5052620;28;20068;-71
2022/09/05 06:25:44;;;;;;;1.88;1.63;;;17.40;99.90;;;;;;5053045;28;20064;-71
2022/09/05 06:28:13;;;;;;;2.03;1.65;;;17.40;99.90;;;;;;5041696;28;20056;-70
2022/09/05 06:31:03;;;;;;;2.20;1.60;;;17.50;99.90;;;;;;5036068;28;20047;-80
2022/09/05 06:33:37;;;;;;;3.50;1.70;;;17.60;99.90;;;;;;5052525;28;20095;-80
2022/09/05 06:36:06;;;;;;;2.47;1.45;;;18.10;99.90;;;;;;5052399;28;20103;-71
2022/09/05 06:38:53;;;;;;;2.17;1.70;;;18.60;99.90;;;;;;5051297;28;20396;-71
2022/09/05 06:41:27;;;;;;;3.28;1.77;;;19.00;99.70;;;;;;5051424;28;20041;-71
2022/09/05 06:44:22;;;;;;;1.77;1.40;;;19.40;98.30;;;;;;5051501;28;20049;-71
2022/09/05 06:46:56;;;;;;;2.50;1.55;;;19.80;97.20;;;;;;5051365;28;20043;-80
2022/09/05 06:49:42;;;;;;;1.73;1.55;;;20.20;96.60;;;;;;5051370;28;20466;-80
2022/09/05 06:52:35;;;;;;;2.53;1.50;;;20.50;96.30;;;;;;5052736;28;20092;-71
2022/09/05 06:55:14;;;;;;;2.08;1.45;;;20.80;95.90;;;;;;5051104;28;20622;-80
2022/09/05 06:58:18;;;;;;;2.28;1.63;;;20.90;95.20;;;;;;5051055;28;20056;-71
2022/09/05 07:00:47;;;;;;;2.17;1.75;;;20.90;95.20;;;;;;5050791;28;20045;-72
2022/09/05 07:03:50;;;;;;;2.45;1.48;;;21.00;95.30;;;;;;5050743;28;20041;-80
2022/09/05 07:06:23;;;;;;;2.97;1.75;;;21.10;95.30;;;;;;5034016;28;20041;-71
2022/09/05 07:09:26;;;;;;;3.25;1.52;;;21.10;95.10;;;;;;5050975;28;20051;-71
2022/09/05 07:12:09;;;;;;;1.88;1.48;;;21.00;95.00;;;;;;5027614;28;20057;-71
2022/09/05 07:15:33;;;;;;;1.77;1.45;;;20.90;95.40;;;;;;5034112;28;20137;-71
2022/09/05 07:18:24;;;;;;;1.60;1.20;;;21.10;95.70;;;;;;4949950;28;20051;-72
2022/09/05 07:20:56;;;;;;;1.63;1.30;;;21.50;95.50;;;;;;4954757;28;20054;-72
2022/09/05 07:23:51;;;;;;;1.38;1.20;;;21.70;94.90;;;;;;5018772;28;20060;-72
2022/09/05 07:26:18;;;;;;;2.05;1.60;;;22.00;94.80;;;;;;5050571;28;20044;-72
2022/09/05 07:28:52;;;;;;;1.75;1.33;;;22.10;94.60;;;;;;5050845;28;20151;-81
2022/09/05 07:31:25;;;;;;;1.40;1.30;;;22.40;94.60;;;;;;5050805;28;20099;-81
2022/09/05 07:34:10;;;;;;;3.05;1.33;;;22.60;94.00;;;;;;5050878;28;20088;-72
2022/09/05 07:36:45;;;;;;;1.60;1.30;;;22.80;94.20;;;;;;5021981;28;1089132;-72
2022/09/05 07:39:17;;;;;;;3.97;1.40;;;23.00;93.40;;;;;;5054396;28;20056;-72
2022/09/05 07:41:52;;;;;;;1.77;1.15;;;23.10;93.70;;;;;;5054989;28;20084;-80
2022/09/05 07:44:20;;;;;;;0.95;0.85;;;23.30;93.90;;;;;;5054589;28;20044;-81
2022/09/05 07:46:48;;;;;;;0.82;0.75;;;23.50;93.70;;;;;;5054818;28;20119;-81
2022/09/05 07:49:19;;;;;;;0.82;0.77;;;23.80;93.50;;;;;;5054604;28;20055;-82
2022/09/05 07:51:56;;;;;;;2.00;1.40;;;23.80;93.30;;;;;;5054404;28;20048;-72
2022/09/05 07:54:24;;;;;;;3.15;1.10;;;23.60;93.20;;;;;;5054320;28;20045;-81
2022/09/05 07:57:02;;;;;;;1.70;1.30;;;23.70;93.40;;;;;;5054472;28;20053;-81
2022/09/05 07:59:33;;;;;;;1.38;1.20;;;23.70;93.50;;;;;;5054244;28;20200;-79
2022/09/05 08:02:00;;;;;;;1.55;1.00;;;23.90;93.80;;;;;;5053327;28;20041;-82
2022/09/05 08:04:32;;;;;;;1.58;1.20;;;24.00;93.30;;;;;;5072488;28;20045;-80
2022/09/05 08:07:01;;;;;;;1.33;0.98;;;23.90;93.40;;;;;;5054089;28;20052;-72
2022/09/05 08:09:41;;;;;;;1.15;1.05;;;23.80;93.30;;;;;;5054425;28;20383;-71
2022/09/05 08:12:32;;;;;;;1.45;1.20;;;23.90;93.60;;;;;;5054037;28;20098;-72
2022/09/05 08:15:13;;;;;;;1.40;1.27;;;24.00;93.40;;;;;;5054038;28;20087;-71
2022/09/05 08:17:50;;;;;;;2.08;1.40;;;24.00;93.30;;;;;;5054262;28;20044;-81
2022/09/05 08:20:24;;;;;;;1.25;1.00;;;24.00;93.50;;;;;;5053899;28;20052;-81
2022/09/05 08:23:04;;;;;;;0.98;0.88;;;24.20;93.40;;;;;;5053810;28;20044;-81
2022/09/05 08:25:38;;;;;;;1.85;1.25;;;24.40;93.50;;;;;;5053991;28;20102;-80
2022/09/05 08:28:21;;;;;;;2.42;1.35;;;24.30;93.20;;;;;;5053664;28;20040;-72
2022/09/05 08:31:06;;;;;;;1.80;1.23;;;24.40;93.60;;;;;;5053613;28;20045;-81
2022/09/05 08:33:35;;;;;;;1.52;1.10;;;24.40;93.40;;;;;;5053612;28;20056;-72
2022/09/05 08:36:35;;;;;;;1.50;1.10;;;24.40;93.50;;;;;;5071436;28;20064;-71
2022/09/05 08:39:03;;;;;;;1.35;1.00;;;24.50;93.70;;;;;;5053496;28;20510;-71
2022/09/05 08:41:44;;;;;;;1.08;0.90;;;24.60;94.00;;;;;;5053439;28;21919;-81
2022/09/05 08:44:19;;;;;;;1.27;1.00;;;24.60;93.50;;;;;;5071664;28;20041;-81
2022/09/05 08:47:01;;;;;;;1.20;1.00;;;24.70;93.60;;;;;;5053589;28;20036;-73
2022/09/05 08:49:39;;;;;;;1.20;0.85;;;24.70;93.60;;;;;;5053331;28;20044;-72
2022/09/05 08:52:24;;;;;;;1.10;1.00;;;25.00;93.60;;;;;;5053348;28;20052;-82
2022/09/05 08:55:11;;;;;;;1.00;0.90;;;25.10;93.50;;;;;;5053310;28;20563;-79
2022/09/05 08:58:03;;;;;;;1.10;0.90;;;25.50;93.70;;;;;;5053359;28;20113;-80
2022/09/05 09:00:43;;;;;;;0.93;0.70;;;25.70;93.50;;;;;;5053062;28;20151;-72
2022/09/05 09:03:22;;;;;;;0.95;0.85;;;25.70;93.70;;;;;;5051292;28;20091;-81
2022/09/05 09:05:53;;;;;;;1.50;1.00;;;25.90;93.50;;;;;;5053571;28;20095;-82
2022/09/05 09:08:27;;;;;;;0.85;0.80;;;26.00;93.10;;;;;;5053117;28;20080;-72
2022/09/05 09:11:11;;;;;;;1.08;0.93;;;26.20;93.20;;;;;;5053345;28;20106;-72
2022/09/05 09:14:23;;;;;;;0.85;0.75;;;26.20;93.30;;;;;;5053009;28;20071;-81
2022/09/05 09:16:52;;;;;;;0.70;0.70;;;26.30;93.30;;;;;;5053223;28;20052;-72
2022/09/05 09:19:45;;;;;;;2.08;1.10;;;26.40;93.30;;;;;;5036638;28;20048;-72
2022/09/05 09:22:36;;;;;;;1.45;0.80;;;26.40;93.20;;;;;;5042132;28;20060;-72
2022/09/05 09:25:08;;;;;;;1.25;1.02;;;26.50;93.30;;;;;;5053129;28;20159;-72
2022/09/05 09:27:34;;;;;;;1.63;1.00;;;26.70;93.10;;;;;;5052787;28;20047;-81
2022/09/05 09:30:04;;;;;;;1.17;0.98;;;26.70;93.00;;;;;;5053315;28;20048;-81
2022/09/05 09:32:47;;;;;;;1.38;0.93;;;26.60;92.90;;;;;;5052739;28;20063;-81
2022/09/05 09:35:28;;;;;;;1.15;1.05;;;26.60;92.60;;;;;;5052824;28;20109;-80
2022/09/05 09:38:19;;;;;;;1.52;1.00;;;26.50;92.70;;;;;;5052672;28;20065;-81
2022/09/05 09:41:15;;;;;;;2.45;1.10;;;26.70;92.80;;;;;;5052823;28;20052;-80
2022/09/05 09:44:19;;;;;;;1.80;1.20;;;26.70;92.60;;;;;;5052703;28;20087;-72
2022/09/05 09:46:49;;;;;;;1.40;1.10;;;26.70;92.40;;;;;;5052941;28;20687;-81
2022/09/05 09:49:38;;;;;;;1.58;0.93;;;26.70;92.70;;;;;;5052852;28;20055;-81
2022/09/05 09:52:33;;;;;;;1.30;0.80;;;26.90;92.70;;;;;;5070667;28;20052;-72
2022/09/05 09:55:37;;;;;;;1.02;0.93;;;27.20;92.70;;;;;;5018840;28;20060;-81
2022/09/05 09:58:21;;;;;;;1.38;1.13;;;27.20;91.80;;;;;;5052625;28;20055;-80
2022/09/05 10:00:50;;;;;;;2.35;1.45;;;27.10;92.20;;;;;;5052469;28;20406;-72
2022/09/05 10:03:27;;;;;;;1.70;1.40;;;27.00;92.00;;;;;;5052458;28;20059;-72
2022/09/05 10:06:17;;;;;;;1.20;1.08;;;27.10;92.30;;;;;;5052643;28;20109;-72
2022/09/05 10:09:07;;;;;;;1.35;1.05;;;27.10;92.30;;;;;;5052640;28;20123;-80
2022/09/05 10:11:37;;;;;;;0.80;0.80;;;27.10;92.30;;;;;;5035885;28;20052;-71
2022/09/05 10:14:18;;;;;;;0.80;0.63;;;27.30;92.20;;;;;;5052449;28;20052;-73
2022/09/05 10:17:00;;;;;;;1.13;0.70;;;27.40;92.20;;;;;;5035898;28;20137;-73
2022/09/05 10:19:34;;;;;;;0.98;0.70;;;27.40;92.20;;;;;;5052465;28;20399;-80
2022/09/05 10:22:23;;;;;;;1.38;0.93;;;27.50;92.30;;;;;;5035701;28;20091;-80
2022/09/05 10:25:00;;;;;;;1.13;0.80;;;27.60;92.00;;;;;;5052669;28;20040;-71
2022/09/05 10:27:35;;;;;;;1.63;0.95;;;27.70;91.90;;;;;;5056030;28;20047;-81
2022/09/05 10:30:10;;;;;;;1.60;1.00;;;27.70;91.80;;;;;;5056218;28;20078;-81
2022/09/05 10:32:42;;;;;;;1.15;0.70;;;27.70;91.60;;;;;;5056097;28;20048;-80
2022/09/05 10:35:18;;;;;;;1.00;0.70;;;27.80;91.70;;;;;;5056196;28;20403;-71
2022/09/05 10:38:04;;;;;;;1.80;0.70;;;28.10;91.40;;;;;;5038960;28;20140;-72
2022/09/05 10:40:32;;;;;;;;;;;28.30;91.40;;;;;;5056155;28;20806;-72
2022/09/05 10:43:08;;;;;;;1.27;0.70;;;28.50;91.60;;;;;;5055670;28;20010;-81
2022/09/05 10:45:44;;;;;;;0.90;0.70;;;28.70;91.20;;;;;;5055678;28;20048;-80
2022/09/05 10:48:28;;;;;;;1.88;0.70;;;28.80;90.60;;;;;;5055773;28;20037;-71
2022/09/05 10:51:07;;;;;;;1.00;0.90;;;28.80;90.60;;;;;;5055859;28;20045;-81
2022/09/05 10:54:04;;;;;;;1.35;0.90;;;28.80;90.70;;;;;;5055618;28;20052;-74
2022/09/05 10:56:39;;;;;;;0.90;0.70;;;28.90;90.80;;;;;;5055614;28;20056;-72
2022/09/05 10:59:22;;;;;;;1.40;0.80;;;29.00;90.90;;;;;;5073840;28;20053;-81
2022/09/05 11:02:05;;;;;;;0.90;0.80;;;29.20;90.90;;;;;;5055416;28;20124;-81
2022/09/05 11:04:52;;;;;;;0.68;0.68;;;29.30;90.60;;;;;;5073332;28;20523;-81
2022/09/05 11:07:23;;;;;;;0.85;0.60;;;29.40;90.80;;;;;;5055140;28;20076;-72
2022/09/05 11:09:58;;;;;;;0.82;0.65;;;29.70;90.80;;;;;;5055384;28;20032;-72
2022/09/05 11:12:50;;;;;;;0.90;0.70;;;29.70;90.80;;;;;;5055436;28;20151;-71
2022/09/05 11:15:37;;;;;;;0.98;0.63;;;29.90;90.50;;;;;;5054502;28;20061;-72
2022/09/05 11:18:21;;;;;;;1.05;0.70;;;30.00;90.60;;;;;;5055105;28;20056;-72
2022/09/05 11:21:09;;;;;;;1.50;0.90;;;30.10;90.30;;;;;;5055810;28;20115;-81
2022/09/05 11:23:51;;;;;;;0.80;0.60;;;30.20;90.50;;;;;;5056683;28;20102;-72
2022/09/05 11:26:47;;;;;;;0.70;0.68;;;30.20;90.20;;;;;;5054896;28;20048;-72
2022/09/05 11:29:41;;;;;;;0.93;0.70;;;30.00;90.00;;;;;;5054779;28;20507;-72
2022/09/05 11:32:07;;;;;;;0.70;0.60;;;29.90;90.60;;;;;;5054957;28;20059;-72
2022/09/05 11:34:57;;;;;;;1.13;0.80;;;30.00;90.90;;;;;;5054712;28;20483;-81
2022/09/05 11:37:31;;;;;;;0.40;0.40;;;30.40;90.40;;;;;;5053362;28;20151;-81
2022/09/05 11:40:30;;;;;;;0.70;0.68;;;30.80;90.00;;;;;;5054673;28;20127;-82
2022/09/05 11:43:22;;;;;;;0.88;0.73;;;30.90;90.00;;;;;;5054631;28;20142;-72
2022/09/05 11:46:02;;;;;;;0.70;0.60;;;31.00;90.00;;;;;;5054817;28;20040;-81
2022/09/05 11:48:59;;;;;;;1.55;0.90;;;31.30;90.20;;;;;;5054405;28;20048;-72
2022/09/05 11:52:03;;;;;;;0.75;0.60;;;31.40;90.10;;;;;;5027358;28;20058;-72
2022/09/05 11:54:57;;;;;;;1.10;0.70;;;31.30;89.40;;;;;;5037687;28;20131;-81
2022/09/05 11:57:53;;;;;;;0.93;0.70;;;31.30;89.50;;;;;;5054293;28;20048;-82
2022/09/05 12:00:40;;;;;;;1.35;0.70;;;30.90;88.80;;;;;;5054314;28;20044;-82
2022/09/05 12:03:44;;;;;;;0.60;0.60;;;31.00;89.30;;;;;;5054328;28;20434;-72
2022/09/05 12:06:19;;;;;;;0.88;0.70;;;30.90;89.20;;;;;;5054361;28;20126;-73
2022/09/05 12:08:51;;;;;;;;;;;30.90;89.50;;;;;;5054818;28;20040;-82
2022/09/05 12:11:22;;;;;;;1.58;0.82;;;31.10;89.50;;;;;;5054333;28;19917;-72
2022/09/05 12:14:07;;;;;;;0.60;0.60;;;31.20;89.30;;;;;;5054012;28;20041;-73
2022/09/05 12:16:45;;;;;;;0.60;0.60;;;31.60;89.80;;;;;;5053917;28;20048;-72
2022/09/05 12:19:31;;;;;;;0.70;0.52;;;31.80;88.80;;;;;;5054225;28;20139;-72
2022/09/05 12:22:06;;;;;;;0.47;0.47;;;32.00;88.90;;;;;;5053772;28;20048;-73
2022/09/05 12:24:56;;;;;;;0.70;0.70;;;31.80;88.20;;;;;;5037513;28;20395;-72
2022/09/05 12:27:28;;;;;;;1.13;0.60;;;31.80;87.80;;;;;;5053659;28;20586;-72
2022/09/05 12:29:57;;;;;;;0.52;0.52;;;31.70;88.20;;;;;;5053855;28;20056;-72
2022/09/05 12:32:26;;;;;;;0.60;0.60;;;31.90;88.80;;;;;;5071945;28;20063;-82
2022/09/05 12:34:58;;;;;;;0.52;0.50;;;32.10;88.10;;;;;;5053442;28;20238;-73
2022/09/05 12:37:26;;;;;;;0.68;0.60;;;32.00;87.20;;;;;;5053310;28;20138;-73
2022/09/05 12:40:13;;;;;;;0.60;0.60;;;32.10;87.70;;;;;;5053994;28;20036;-83
2022/09/05 12:42:59;;;;;;;0.60;0.60;;;32.10;87.90;;;;;;5073771;28;20127;-83
2022/09/05 12:45:31;;;;;;;;;;;32.20;86.50;;;;;;5054544;28;20533;-81
2022/09/05 12:48:09;;;;;;;0.65;0.63;;;31.90;87.60;;;;;;5053231;28;20054;-73
2022/09/05 12:50:53;;;;;;;0.60;0.60;;;32.00;88.10;;;;;;5053417;28;20127;-82
2022/09/05 12:53:20;;;;;;;0.60;0.60;;;32.00;88.00;;;;;;5037289;28;20075;-72
2022/09/05 12:56:06;;;;;;;0.60;0.60;;;32.00;87.00;;;;;;5053246;28;20057;-72
2022/09/05 12:58:34;;;;;;;0.60;0.60;;;31.90;87.40;;;;;;5053549;28;20074;-72
2022/09/05 13:01:13;;;;;;;0.50;0.50;;;31.80;87.80;;;;;;5053754;28;20044;-82
2022/09/05 13:04:04;;;;;;;0.60;0.60;;;31.70;88.30;;;;;;5054105;28;20444;-73
2022/09/05 13:06:41;;;;;;;0.60;0.40;;;31.50;88.70;;;;;;5053254;28;20050;-80
2022/09/05 13:09:18;;;;;;;1.50;0.50;;;31.40;87.60;;;;;;5053731;28;20040;-82
2022/09/05 13:12:17;;;;;;;0.40;0.40;;;31.20;88.20;;;;;;5053121;28;20128;-72
2022/09/05 13:15:15;;;;;;;0.50;0.50;;;30.90;88.20;;;;;;5052752;28;20131;-73
2022/09/05 13:17:58;;;;;;;2.67;0.93;;;31.20;88.20;;;;;;5053143;28;20048;-72
2022/09/05 13:20:35;;;;;;;1.30;0.80;;;31.20;87.60;;;;;;5053615;28;20056;-82
2022/09/05 13:23:35;;;;;;;0.68;0.68;;;31.40;87.80;;;;;;5036348;28;20079;-81
2022/09/05 13:26:02;;;;;;;0.70;0.70;;;31.40;87.20;;;;;;5054273;28;20052;-72
2022/09/05 13:28:53;;;;;;;0.70;0.60;;;31.50;87.40;;;;;;5054024;28;20044;-81
2022/09/05 13:31:41;;;;;;;0.70;0.63;;;31.80;87.70;;;;;;5053423;28;20123;-81
2022/09/05 13:34:17;;;;;;;0.60;0.50;;;32.00;87.70;;;;;;5053414;28;20157;-72
2022/09/05 13:36:55;;;;;;;0.60;0.50;;;32.20;87.50;;;;;;5052897;28;20080;-81
2022/09/05 13:39:27;;;;;;;1.00;0.70;;;32.30;87.60;;;;;;5052894;28;20141;-72
2022/09/05 13:42:00;;;;;;;1.80;0.68;;;32.40;86.70;;;;;;5053051;28;20053;-82
2022/09/05 13:44:28;;;;;;;0.82;0.70;;;32.00;85.90;;;;;;5052617;28;20048;-72
2022/09/05 13:47:05;;;;;;;1.00;0.70;;;31.50;86.20;;;;;;5052602;28;20048;-72
2022/09/05 13:49:42;;;;;;;0.70;0.60;;;30.90;86.40;;;;;;5052948;28;20036;-72
2022/09/05 13:52:24;;;;;;;0.80;0.60;;;30.60;87.50;;;;;;5053154;28;20483;-80
2022/09/05 13:54:56;;;;;;;0.50;0.50;;;30.10;87.50;;;;;;5054608;28;20044;-81
2022/09/05 13:57:33;;;;;;;0.50;0.50;;;29.90;88.80;;;;;;5053959;28;20075;-81
2022/09/05 14:00:09;;;;;;;0.70;0.60;;;30.20;88.70;;;;;;5054271;28;20126;-72
2022/09/05 14:03:08;;;;;;;0.60;0.40;;;30.20;88.10;;;;;;5074709;28;20044;-72
2022/09/05 14:05:49;;;;;;;0.60;0.47;;;30.20;88.00;;;;;;5056901;28;20102;-82
2022/09/05 14:08:33;;;;;;;0.82;0.30;;;30.10;88.20;;;;;;5074380;28;20052;-80